Time;durP1;ratioP1;P1;durP2;ratioP2;P2;SDS_P1;SDS_P2;PMS_P1;PMS_P2;Temp;Humidity;BMP_temperature;BMP_pressure;BME280_temperature;BME280_humidity;BME280_pressure;Samples;Min_cycle;Max_cycle;Signal;HPM_P1;HPM_P2
2022/12/23 00:00:32;;;;;;;;;0.00;0.00;;;;;15.45;75.24;100274.84;2113160;27;46369;-64
2022/12/23 00:01:33;;;;;;;;;0.00;0.00;;;;;15.44;75.34;100270.44;2106471;27;46440;-63
2022/12/23 00:02:33;;;;;;;;;0.00;0.00;;;;;15.44;75.33;100274.91;2108681;27;46220;-64
2022/12/23 00:03:34;;;;;;;;;0.00;0.00;;;;;15.44;75.29;100274.91;2098509;27;46869;-62
2022/12/23 00:04:34;;;;;;;;;0.00;0.00;;;;;15.43;75.65;100274.06;2105091;27;47353;-62
2022/12/23 00:05:36;;;;;;;;;0.00;0.00;;;;;15.43;75.39;100273.19;2106858;27;46482;-64
2022/12/23 00:06:37;;;;;;;;;0.00;0.00;;;;;15.42;75.30;100274.13;2105644;28;46752;-63
2022/12/23 00:07:37;;;;;;;;;0.00;0.00;;;;;15.43;75.73;100278.53;2105466;28;46607;-62
2022/12/23 00:08:38;;;;;;;;;0.00;0.00;;;;;15.43;75.81;100273.19;2105417;28;46763;-64
2022/12/23 00:09:38;;;;;;;;;0.00;0.00;;;;;15.42;75.58;100266.13;2105833;27;46651;-64
2022/12/23 00:10:39;;;;;;;;;0.00;0.00;;;;;15.41;75.46;100262.56;2106406;27;46292;-62
2022/12/23 00:15:04;;;;;;;;;0.00;0.00;;;;;15.43;75.50;100273.19;2105948;27;46498;-63
2022/12/23 00:15:38;;;;;;;;;0.50;0.25;;;;;15.44;75.52;100275.78;2105810;28;46513;-62
2022/12/23 00:16:38;;;;;;;;;0.00;0.00;;;;;15.44;75.86;100272.25;2106320;27;46844;-61
2022/12/23 00:17:43;;;;;;;;;0.33;0.33;;;;;15.44;75.69;100270.44;2106250;27;46740;-64
2022/12/23 00:18:44;;;;;;;;;0.00;0.00;;;;;15.45;76.13;100269.50;2105516;27;46308;-63
2022/12/23 00:19:44;;;;;;;;;0.00;0.00;;;;;15.45;76.18;100265.94;2106067;27;46161;-63
2022/12/23 00:20:44;;;;;;;;;0.00;0.00;;;;;15.46;75.96;100265.88;2105471;27;46846;-64
2022/12/23 00:21:45;;;;;;;;;0.00;0.00;;;;;15.49;75.68;100270.19;2105686;28;47129;-63
2022/12/23 00:23:03;;;;;;;;;0.00;0.00;;;;;15.49;76.04;100268.38;2106121;27;46482;-63
2022/12/23 00:24:04;;;;;;;;;1.00;0.00;;;;;15.50;75.68;100274.59;2110304;27;46515;-64
2022/12/23 00:25:04;;;;;;;;;0.00;0.00;;;;;15.49;75.44;100272.88;2111163;27;46410;-64
2022/12/23 00:26:06;;;;;;;;;0.00;0.00;;;;;15.48;75.79;100269.34;2105828;27;46693;-62
2022/12/23 00:27:06;;;;;;;;;0.00;0.00;;;;;15.46;75.69;100271.22;2105645;27;46333;-63
2022/12/23 00:28:12;;;;;;;;;0.00;0.00;;;;;15.45;75.81;100276.66;2096920;28;46618;-63
2022/12/23 00:29:12;;;;;;;;;0.00;0.00;;;;;15.45;76.11;100273.97;2097287;28;46774;-64
2022/12/23 00:30:13;;;;;;;;;0.33;0.33;;;;;15.44;76.06;100277.59;2106079;27;45520;-62
2022/12/23 00:31:14;;;;;;;;;1.00;0.00;;;;;15.44;76.34;100278.47;2105921;27;46709;-63
2022/12/23 00:32:14;;;;;;;;;0.00;0.00;;;;;15.43;76.13;100278.53;2108288;27;47062;-64
2022/12/23 00:33:17;;;;;;;;;0.00;0.00;;;;;15.43;76.29;100279.41;2105736;27;45798;-62
2022/12/23 00:34:17;;;;;;;;;0.00;0.00;;;;;15.41;76.67;100275.94;2105928;27;46411;-62
2022/12/23 00:35:18;;;;;;;;;0.00;0.00;;;;;15.40;76.28;100271.53;2105436;28;46245;-63
2022/12/23 00:36:18;;;;;;;;;0.00;0.00;;;;;15.40;76.73;100270.66;2104849;28;47106;-63
2022/12/23 00:37:18;;;;;;;;;2.00;0.00;;;;;15.37;76.72;100274.34;2105997;27;45667;-61
2022/12/23 00:42:52;;;;;;;;;0.00;0.00;;;;;15.38;76.52;100276.09;2105463;27;46525;-62
2022/12/23 00:43:37;;;;;;;;;0.00;0.00;;;;;15.29;77.34;100266.72;2105442;27;46610;-64
2022/12/23 00:44:37;;;;;;;;;0.00;0.00;;;;;15.28;77.37;100273.00;2099122;28;46825;-63
2022/12/23 00:45:37;;;;;;;;;0.00;0.00;;;;;15.28;77.36;100261.44;2104452;28;46751;-63
2022/12/23 00:46:38;;;;;;;;;2.33;0.33;;;;;15.28;77.16;100272.13;2107143;27;46936;-61
2022/12/23 00:50:16;;;;;;;;;0.00;0.00;;;;;15.26;77.60;100272.22;2104781;28;46724;-62
2022/12/23 00:51:16;;;;;;;;;0.00;0.00;;;;;15.26;77.60;100272.22;2105377;27;46756;-63
2022/12/23 00:52:16;;;;;;;;;0.00;0.00;;;;;15.27;77.82;100273.94;2104492;28;46541;-63
2022/12/23 00:53:17;;;;;;;;;0.00;0.00;;;;;15.27;77.80;100267.72;2104835;28;46586;-63
2022/12/23 00:54:18;;;;;;;;;0.00;0.00;;;;;15.29;77.95;100277.41;2104729;28;46301;-63
2022/12/23 00:55:18;;;;;;;;;0.67;0.00;;;;;15.31;77.99;100280.00;2104490;28;46882;-63
2022/12/23 00:56:18;;;;;;;;;0.00;0.00;;;;;15.32;78.00;100279.91;2106914;27;46518;-63
2022/12/23 00:57:19;;;;;;;;;0.00;0.00;;;;;15.34;78.11;100287.84;2111255;27;46248;-63
2022/12/23 00:58:20;;;;;;;;;0.00;0.00;;;;;15.37;78.29;100295.72;2104283;28;46790;-61
2022/12/23 00:59:20;;;;;;;;;0.00;0.00;;;;;15.37;78.05;100292.19;2104669;28;46345;-62
2022/12/23 01:05:35;;;;;;;;;0.00;0.00;;;;;15.37;78.16;100295.72;2104981;27;46474;-63
2022/12/23 01:05:38;;;;;;;;;0.00;0.00;;;;;15.38;78.44;100300.16;2092685;28;46398;-62
2022/12/23 01:06:38;;;;;;;;;1.00;1.00;;;;;15.38;78.39;100305.50;2090752;28;46434;-62
2022/12/23 01:07:41;;;;;;;;;0.00;0.00;;;;;15.40;77.85;100308.09;2101190;28;46482;-63
2022/12/23 01:08:42;;;;;;;;;1.00;1.00;;;;;15.40;77.73;100314.31;2102584;28;46742;-63
2022/12/23 01:09:42;;;;;;;;;0.00;0.00;;;;;15.40;77.98;100316.13;2088069;28;46333;-62
2022/12/23 01:10:42;;;;;;;;;0.33;0.33;;;;;15.38;77.97;100307.31;2096740;28;46855;-62
2022/12/23 01:11:43;;;;;;;;;0.33;0.33;;;;;15.38;78.40;100313.53;2104456;28;46642;-62
2022/12/23 01:12:43;;;;;;;;;0.00;0.00;;;;;15.38;78.41;100318.00;2111071;27;46660;-65
2022/12/23 01:13:43;;;;;;;;;1.00;1.00;;;;;15.38;78.11;100321.56;2109321;27;46852;-62
2022/12/23 01:14:44;;;;;;;;;0.00;0.00;;;;;15.37;78.69;100314.44;2104757;28;46608;-62
2022/12/23 01:15:44;;;;;;;;;0.33;0.33;;;;;15.37;78.21;100314.44;2104430;28;47127;-62
2022/12/23 01:16:45;;;;;;;;;0.00;0.00;;;;;15.37;78.46;100317.13;2104544;28;46268;-63
2022/12/23 01:17:45;;;;;;;;;0.00;0.00;;;;;15.36;78.90;100314.53;2096000;28;46644;-62
2022/12/23 01:18:46;;;;;;;;;0.67;0.67;;;;;15.37;78.72;100318.91;2101478;28;46896;-63
2022/12/23 01:19:46;;;;;;;;;0.00;0.00;;;;;15.36;79.08;100310.03;2104832;28;46613;-62
2022/12/23 01:20:46;;;;;;;;;0.00;0.00;;;;;15.37;79.04;100313.56;2096032;28;46188;-62
2022/12/23 01:21:46;;;;;;;;;0.33;0.33;;;;;15.38;78.92;100307.31;2096134;28;46085;-64
2022/12/23 01:22:47;;;;;;;;;0.33;0.33;;;;;15.40;78.77;100305.44;2104367;28;46513;-63
2022/12/23 01:23:47;;;;;;;;;0.00;0.00;;;;;15.38;79.25;100304.66;2104457;28;46626;-62
2022/12/23 01:24:48;;;;;;;;;0.00;0.00;;;;;15.38;78.95;100310.00;2105008;28;45423;-62
2022/12/23 01:25:56;;;;;;;;;0.00;0.00;;;;;15.37;78.93;100311.75;2104314;28;46584;-62
2022/12/23 01:26:57;;;;;;;;;0.00;0.00;;;;;15.35;78.67;100302.97;2106585;27;46647;-61
2022/12/23 01:27:57;;;;;;;;;0.00;0.00;;;;;15.36;78.97;100317.19;2111548;27;46480;-63
2022/12/23 01:28:58;;;;;;;;;0.00;0.00;;;;;15.36;79.04;100311.84;2104692;28;46473;-63
2022/12/23 01:29:58;;;;;;;;;0.00;0.00;;;;;15.36;78.92;100317.19;2104511;27;46565;-62
2022/12/23 01:31:00;;;;;;;;;0.33;0.33;;;;;15.35;79.27;100312.78;2112829;27;46676;-62
2022/12/23 01:32:01;;;;;;;;;0.75;0.75;;;;;15.35;79.30;100312.78;2111836;27;46718;-63
2022/12/23 01:33:01;;;;;;;;;0.00;0.00;;;;;15.34;78.94;100313.72;2093136;28;46701;-64
2022/12/23 01:34:01;;;;;;;;;0.00;0.00;;;;;15.35;79.13;100310.13;2096448;28;45596;-63
2022/12/23 01:35:02;;;;;;;;;0.33;0.00;;;;;15.35;79.08;100310.13;2106867;27;46496;-61
2022/12/23 01:36:05;;;;;;;;;0.00;0.00;;;;;15.35;79.26;100316.31;2104548;27;46331;-62
2022/12/23 01:37:06;;;;;;;;;0.00;0.00;;;;;15.35;79.37;100316.31;2110351;27;46646;-62
2022/12/23 01:38:06;;;;;;;;;0.00;0.00;;;;;15.35;79.59;100313.66;2109070;27;46975;-62
2022/12/23 01:39:06;;;;;;;;;0.00;0.00;;;;;15.36;79.79;100315.38;2105632;27;46841;-62
2022/12/23 01:40:08;;;;;;;;;0.00;0.00;;;;;15.38;79.73;100315.34;2105332;27;45890;-61
2022/12/23 01:42:42;;;;;;;;;0.25;0.25;;;;;15.39;79.18;100312.59;2105570;28;47260;-62
2022/12/23 01:43:50;;;;;;;;;0.00;0.00;;;;;15.40;79.35;100308.09;2104657;28;46696;-62
2022/12/23 01:44:59;;;;;;;;;0.25;0.25;;;;;15.40;79.50;100317.00;2105155;28;45464;-62
2022/12/23 01:46:00;;;;;;;;;0.25;0.25;;;;;15.40;79.78;100313.47;2108848;27;45585;-62
2022/12/23 01:47:01;;;;;;;;;0.00;0.00;;;;;15.41;79.35;100315.19;2105764;27;46658;-61
2022/12/23 01:48:12;;;;;;;;;0.00;0.00;;;;;15.41;79.79;100315.19;2105197;27;46472;-62
2022/12/23 01:49:13;;;;;;;;;0.75;0.75;;;;;15.40;79.72;100317.00;2105393;27;46782;-62
2022/12/23 01:50:21;;;;;;;;;0.00;0.00;;;;;15.42;79.81;100314.25;2104950;28;46463;-62
2022/12/23 01:51:27;;;;;;;;;2.75;0.00;;;;;15.43;79.49;100321.31;2107923;27;46858;-62
2022/12/23 01:52:28;;;;;;;;;0.75;0.75;;;;;15.42;79.94;100315.09;2109999;27;46402;-62
2022/12/23 01:53:32;;;;;;;;;0.00;0.00;;;;;15.43;79.65;100326.66;2104918;27;46883;-62
2022/12/23 01:54:34;;;;;;;;;0.25;0.25;;;;;15.42;79.87;100314.25;2109397;27;46789;-61
2022/12/23 01:55:41;;;;;;;;;0.00;0.00;;;;;15.42;79.92;100311.56;2104996;27;46622;-63
2022/12/23 01:56:42;;;;;;;;;0.00;0.00;;;;;15.42;79.84;100317.78;2104360;28;46891;-61
2022/12/23 01:57:44;;;;;;;;;0.00;0.00;;;;;15.43;79.52;100313.31;2105191;28;46813;-62
2022/12/23 01:58:52;;;;;;;;;0.25;0.25;;;;;15.42;79.58;100309.75;2105051;28;46391;-63
2022/12/23 02:04:00;;;;;;;;;0.00;0.00;;;;;15.41;79.79;100313.38;2099380;27;46728;-61
2022/12/23 02:05:01;;;;;;;;;0.00;0.00;;;;;15.41;79.58;100315.19;2105245;27;46411;-62
2022/12/23 02:10:13;;;;;;;;;0.00;0.00;;;;;15.43;79.59;100318.66;2104310;28;46412;-62
2022/12/23 02:11:41;;;;;;;;;1.67;1.33;;;;;15.43;79.46;100321.31;2104396;28;46532;-62
2022/12/23 02:13:26;;;;;;;;;0.00;0.00;;;;;15.44;79.84;100323.91;2101743;28;46978;-62
2022/12/23 02:16:15;;;;;;;;;0.00;0.00;;;;;15.46;79.40;100324.72;2104505;28;46871;-63
2022/12/23 02:18:07;;;;;;;;;0.75;0.75;;;;;15.46;79.43;100315.81;2103912;28;45208;-62
2022/12/23 02:19:17;;;;;;;;;1.00;1.00;;;;;15.45;79.94;100316.75;2087448;28;46576;-62
2022/12/23 02:20:36;;;;;;;;;2.25;2.25;;;;;15.45;79.97;100308.75;2087177;28;47004;-63
2022/12/23 02:21:46;;;;;;;;;0.50;0.50;;;;;15.45;79.85;100312.28;2087659;28;46358;-62
2022/12/23 02:23:01;;;;;;;;;0.00;0.00;;;;;15.45;79.87;100311.41;2079140;28;46317;-62
2022/12/23 02:24:29;;;;;;;;;0.00;0.00;;;;;15.45;79.87;100306.06;2081008;28;46538;-64
2022/12/23 02:25:57;;;;;;;;;1.00;1.00;;;;;15.45;79.86;100306.06;2087194;28;46434;-61
2022/12/23 02:27:25;;;;;;;;;1.00;1.00;;;;;15.43;79.42;100298.13;2087345;28;46413;-62
2022/12/23 02:28:34;;;;;;;;;0.00;0.00;;;;;15.44;79.78;100299.84;2087336;28;46813;-63
2022/12/23 02:30:12;;;;;;;;;0.75;0.75;;;;;15.44;80.05;100302.53;2086946;28;46629;-63
2022/12/23 02:31:24;;;;;;;;;0.00;0.00;;;;;15.43;79.72;100295.44;2087522;28;46240;-63
2022/12/23 02:32:43;;;;;;;;;0.00;0.00;;;;;15.43;79.58;100306.16;2086567;28;46369;-62
2022/12/23 02:34:00;;;;;;;;;0.00;0.00;;;;;15.42;79.50;100293.72;2086898;28;46758;-62
2022/12/23 02:35:06;;;;;;;;;0.75;0.75;;;;;15.42;79.31;100295.53;2089010;28;45451;-63
2022/12/23 02:36:48;;;;;;;;;0.00;0.00;;;;;15.41;79.27;100304.50;2087219;28;47225;-63
2022/12/23 02:37:54;;;;;;;;;0.75;0.75;;;;;15.41;79.63;100305.34;2054243;28;46414;-62
2022/12/23 02:39:02;;;;;;;;;0.25;0.25;;;;;15.41;79.34;100301.81;2054728;28;46465;-62
2022/12/23 02:40:11;;;;;;;;;2.25;0.00;;;;;15.40;78.90;100300.09;2054395;28;46443;-62
2022/12/23 02:41:12;;;;;;;;;0.00;0.00;;;;;15.38;78.90;100291.28;2054236;28;46933;-63
2022/12/23 02:42:19;;;;;;;;;0.00;0.00;;;;;15.38;79.03;100301.97;2054413;28;45573;-62
2022/12/23 02:43:40;;;;;;;;;2.00;1.00;;;;;15.37;78.86;100298.41;2054412;28;46406;-62
2022/12/23 02:44:55;;;;;;;;;1.00;1.00;;;;;15.36;79.22;100299.34;2055024;28;46775;-62
2022/12/23 02:46:05;;;;;;;;;0.00;0.00;;;;;15.35;78.98;100302.09;2054281;28;46465;-63
2022/12/23 02:47:21;;;;;;;;;0.25;0.25;;;;;15.35;78.82;100302.09;2046273;28;46358;-62
2022/12/23 02:48:47;;;;;;;;;0.25;0.00;;;;;15.32;78.89;100297.75;2054344;28;46435;-63
2022/12/23 02:49:53;;;;;;;;;0.25;0.25;;;;;15.31;78.57;100301.38;2060561;28;46529;-63
2022/12/23 02:50:56;;;;;;;;;0.50;0.50;;;;;15.29;79.01;100300.59;2060751;28;45630;-63
2022/12/23 02:52:01;;;;;;;;;0.75;0.75;;;;;15.28;78.89;100290.84;2055854;28;46556;-62
2022/12/23 02:53:10;;;;;;;;;0.00;0.00;;;;;15.27;78.67;100289.97;2055714;28;46914;-61
2022/12/23 02:54:15;;;;;;;;;1.25;1.25;;;;;15.28;78.87;100297.06;2048409;28;47761;-64
2022/12/23 02:55:23;;;;;;;;;0.00;0.00;;;;;15.28;78.91;100298.88;2070809;28;45706;-62
2022/12/23 02:56:27;;;;;;;;;1.50;0.25;;;;;15.29;78.90;100289.91;2071436;28;46379;-62
2022/12/23 02:57:33;;;;;;;;;0.00;0.00;;;;;15.30;79.06;100286.28;2072178;28;46232;-62
2022/12/23 02:58:40;;;;;;;;;1.25;0.75;;;;;15.29;78.30;100292.56;2080533;28;46612;-62
2022/12/23 02:59:47;;;;;;;;;0.00;0.00;;;;;15.28;78.24;100293.50;2072097;28;46365;-62
2022/12/23 03:00:48;;;;;;;;;1.00;0.75;;;;;15.28;78.74;100298.88;2074542;28;45415;-62
2022/12/23 03:01:50;;;;;;;;;0.00;0.00;;;;;15.28;78.45;100297.06;2080604;28;46599;-63
2022/12/23 03:02:51;;;;;;;;;0.00;0.00;;;;;15.28;78.85;100297.06;2078357;28;46710;-61
2022/12/23 03:03:51;;;;;;;;;0.00;0.00;;;;;15.27;78.22;100299.81;2074817;28;46791;-62
2022/12/23 03:04:52;;;;;;;;;1.33;0.00;;;;;15.28;78.67;100304.22;2080243;28;46337;-61
2022/12/23 03:05:53;;;;;;;;;0.33;0.33;;;;;15.28;78.42;100297.06;2082298;28;45772;-61
2022/12/23 03:06:56;;;;;;;;;0.00;0.00;;;;;15.27;78.41;100303.34;2081741;28;46616;-61
2022/12/23 03:08:01;;;;;;;;;0.25;0.25;;;;;15.26;78.52;100300.75;2088978;28;46032;-61
2022/12/23 03:09:02;;;;;;;;;0.25;0.25;;;;;15.27;78.60;100307.81;2086400;28;47259;-61
2022/12/23 03:10:07;;;;;;;;;1.33;0.33;;;;;15.25;78.07;100305.22;2087870;28;46590;-61
2022/12/23 03:11:12;;;;;;;;;0.00;0.00;;;;;15.24;78.10;100305.28;2080210;28;46996;-62
2022/12/23 03:12:34;;;;;;;;;1.25;0.75;;;;;15.24;78.61;100298.13;2083995;28;45749;-62
2022/12/23 03:13:49;;;;;;;;;0.25;0.00;;;;;15.25;78.23;100296.34;2102586;27;46956;-62
2022/12/23 03:15:12;;;;;;;;;0.25;0.25;;;;;15.25;78.34;100301.69;2114884;27;46399;-61
2022/12/23 03:16:34;;;;;;;;;0.25;0.00;;;;;15.24;78.08;100300.78;2098003;28;46668;-61
2022/12/23 03:18:02;;;;;;;;;0.50;0.50;;;;;15.26;78.01;100298.06;2106419;27;47056;-61
2022/12/23 03:19:41;;;;;;;;;1.00;1.00;;;;;15.27;78.15;100299.81;2106204;27;46800;-61
2022/12/23 03:21:26;;;;;;;;;2.50;1.25;;;;;15.28;77.68;100289.03;2105894;27;46457;-62
2022/12/23 03:23:04;;;;;;;;;1.00;1.00;;;;;15.29;78.26;100281.88;2100123;28;47324;-62
2022/12/23 03:24:17;;;;;;;;;1.00;1.00;;;;;15.29;77.76;100271.19;2063659;28;46728;-61
2022/12/23 03:25:20;;;;;;;;;0.75;0.75;;;;;15.30;77.71;100272.91;2065306;28;46621;-62
2022/12/23 03:26:46;;;;;;;;;0.50;0.50;;;;;15.30;77.65;100280.94;2072161;28;46768;-62
2022/12/23 03:27:51;;;;;;;;;1.75;0.75;;;;;15.29;77.68;100288.09;2071380;28;46526;-62
2022/12/23 03:29:02;;;;;;;;;0.25;0.25;;;;;15.29;77.70;100285.41;2063919;28;45816;-62
2022/12/23 03:30:03;;;;;;;;;0.00;0.00;;;;;15.28;77.41;100282.81;2063555;28;46721;-62
2022/12/23 03:31:10;;;;;;;;;3.33;1.00;;;;;15.29;77.67;100281.88;2064733;28;46309;-62
2022/12/23 03:32:13;;;;;;;;;1.50;0.75;;;;;15.29;77.83;100285.41;2071922;28;46510;-62
2022/12/23 03:33:32;;;;;;;;;0.75;0.75;;;;;15.29;77.78;100285.41;2072027;28;46419;-61
2022/12/23 03:34:38;;;;;;;;;0.00;0.00;;;;;15.30;77.75;100283.59;2071822;28;46414;-61
2022/12/23 03:35:47;;;;;;;;;0.00;0.00;;;;;15.30;77.82;100281.81;2072370;28;46986;-61
2022/12/23 03:36:53;;;;;;;;;1.00;1.00;;;;;15.30;77.84;100278.25;2064454;28;45252;-61
2022/12/23 03:37:57;;;;;;;;;0.75;0.75;;;;;15.30;77.35;100280.94;2072129;28;47197;-61
2022/12/23 03:39:00;;;;;;;;;0.75;0.75;;;;;15.30;77.38;100279.13;2071946;28;46659;-61
2022/12/23 03:40:07;;;;;;;;;1.25;0.75;;;;;15.31;77.57;100280.00;2071906;28;46947;-62
2022/12/23 03:41:15;;;;;;;;;1.00;0.25;;;;;15.29;77.51;100279.22;2071823;28;46732;-62
2022/12/23 03:42:23;;;;;;;;;1.25;1.00;;;;;15.28;77.53;100285.50;2071827;28;46624;-66
2022/12/23 03:43:29;;;;;;;;;0.25;0.25;;;;;15.28;77.93;100286.34;2071902;28;46134;-62
2022/12/23 03:44:37;;;;;;;;;2.00;2.00;;;;;15.29;77.19;100287.22;2063294;28;46662;-62
2022/12/23 03:45:45;;;;;;;;;0.75;0.75;;;;;15.28;77.51;100286.34;2064974;28;46993;-62
2022/12/23 03:46:53;;;;;;;;;0.75;0.75;;;;;15.29;77.55;100295.25;2071963;28;46822;-62
2022/12/23 03:48:14;;;;;;;;;1.00;1.00;;;;;15.28;77.03;100294.38;2071885;28;45933;-62
2022/12/23 03:49:20;;;;;;;;;1.00;1.00;;;;;15.28;77.34;100291.72;2071530;28;46534;-63
2022/12/23 03:50:23;;;;;;;;;0.00;0.00;;;;;15.28;77.63;100282.81;2071723;28;46496;-62
2022/12/23 03:51:31;;;;;;;;;0.00;0.00;;;;;15.27;77.31;100281.09;2072065;28;46364;-62
2022/12/23 03:52:42;;;;;;;;;0.00;0.00;;;;;15.27;77.54;100284.63;2071467;28;47018;-63
2022/12/23 03:53:53;;;;;;;;;1.00;1.00;;;;;15.29;76.99;100290.75;2063843;28;46683;-62
2022/12/23 03:54:57;;;;;;;;;0.25;0.25;;;;;15.28;77.56;100285.50;2065061;28;46398;-61
2022/12/23 03:56:02;;;;;;;;;3.00;3.00;;;;;15.28;76.95;100285.50;2093722;28;46607;-62
2022/12/23 03:57:06;;;;;;;;;1.75;1.75;;;;;15.27;77.26;100292.66;2096702;28;46762;-62
2022/12/23 03:58:14;;;;;;;;;1.00;1.00;;;;;15.28;76.93;100288.16;2096492;28;47140;-60
2022/12/23 03:59:26;;;;;;;;;0.25;0.25;;;;;15.28;77.51;100286.34;2096309;28;46842;-61
2022/12/23 04:00:31;;;;;;;;;2.00;1.00;;;;;15.28;77.44;100283.69;2100448;28;46832;-62
2022/12/23 04:01:52;;;;;;;;;1.75;0.00;;;;;15.29;77.00;100297.91;2105741;28;46755;-62
2022/12/23 04:03:14;;;;;;;;;1.75;1.00;;;;;15.29;77.11;100292.56;2103906;28;46397;-62
2022/12/23 04:04:44;;;;;;;;;0.75;0.75;;;;;15.31;77.21;100290.69;2105410;28;46766;-62
2022/12/23 04:05:51;;;;;;;;;2.00;0.50;;;;;15.30;76.86;100292.50;2096318;28;46440;-61
2022/12/23 04:07:00;;;;;;;;;1.25;1.25;;;;;15.30;77.00;100291.63;2096566;28;47117;-62
2022/12/23 04:08:10;;;;;;;;;0.00;0.00;;;;;15.29;76.84;100288.09;2096633;28;46516;-62
2022/12/23 04:09:11;;;;;;;;;0.75;0.75;;;;;15.30;77.16;100286.28;2096814;28;46814;-61
2022/12/23 04:10:13;;;;;;;;;0.75;0.75;;;;;15.29;77.08;100289.91;2096840;28;46024;-62
2022/12/23 04:11:13;;;;;;;;;1.00;1.00;;;;;15.29;77.20;100279.22;2096696;28;46526;-61
2022/12/23 04:12:14;;;;;;;;;1.00;1.00;;;;;15.30;77.08;100275.59;2096789;28;46216;-61
2022/12/23 04:13:14;;;;;;;;;1.00;1.00;;;;;15.29;76.97;100269.38;2096737;28;45806;-61
2022/12/23 04:14:19;;;;;;;;;1.67;1.67;;;;;15.28;76.78;100258.75;2096726;28;46555;-62
2022/12/23 04:15:21;;;;;;;;;3.50;2.00;;;;;15.28;77.50;100258.75;2094410;28;46802;-61
2022/12/23 04:16:22;;;;;;;;;0.00;0.00;;;;;15.27;76.91;100265.91;2088756;28;46778;-61
2022/12/23 04:17:22;;;;;;;;;0.00;0.00;;;;;15.27;77.21;100265.91;2088345;28;46231;-61
2022/12/23 04:18:22;;;;;;;;;0.00;0.00;;;;;15.26;77.27;100271.34;2088328;28;46529;-62
2022/12/23 04:19:23;;;;;;;;;2.33;0.33;;;;;15.25;76.81;100266.94;2088339;28;46542;-63
2022/12/23 04:20:24;;;;;;;;;0.33;0.00;;;;;15.25;77.22;100266.94;2094928;28;45787;-61
2022/12/23 04:21:25;;;;;;;;;0.00;0.00;;;;;15.24;77.46;100263.38;2096307;28;47027;-62
2022/12/23 04:22:25;;;;;;;;;0.33;0.33;;;;;15.23;77.28;100250.09;2096339;28;46758;-62
2022/12/23 04:23:26;;;;;;;;;1.00;0.67;;;;;15.24;77.14;100258.03;2096194;28;46492;-61
2022/12/23 04:24:26;;;;;;;;;1.67;0.67;;;;;15.24;77.51;100260.69;2096758;28;45645;-61
2022/12/23 04:25:26;;;;;;;;;0.00;0.00;;;;;15.25;77.06;100259.78;2088263;28;46355;-61
2022/12/23 04:26:27;;;;;;;;;0.67;0.67;;;;;15.26;77.00;100266.84;2079990;28;46108;-61
2022/12/23 04:27:27;;;;;;;;;0.00;0.00;;;;;15.25;76.80;100269.63;2088213;28;46206;-61
2022/12/23 04:28:27;;;;;;;;;1.33;1.33;;;;;15.27;77.00;100279.28;2089389;28;45859;-61
2022/12/23 04:29:28;;;;;;;;;0.00;0.00;;;;;15.26;77.41;100276.69;2088086;28;46729;-62
2022/12/23 04:30:28;;;;;;;;;0.00;0.00;;;;;15.26;77.31;100282.91;2088032;28;46493;-61
2022/12/23 04:31:28;;;;;;;;;0.00;0.00;;;;;15.26;77.22;100280.22;2096423;28;46801;-61
2022/12/23 04:32:29;;;;;;;;;1.00;1.00;;;;;15.26;77.34;100284.72;2099773;28;46588;-62
2022/12/23 04:33:29;;;;;;;;;0.33;0.33;;;;;15.24;77.31;100279.41;2103613;28;46276;-62
2022/12/23 04:34:29;;;;;;;;;2.67;1.33;;;;;15.25;77.12;100277.63;2095986;28;46472;-62
2022/12/23 04:35:30;;;;;;;;;1.00;0.00;;;;;15.25;77.15;100285.66;2094635;28;46435;-61
2022/12/23 04:36:30;;;;;;;;;1.67;1.67;;;;;15.24;77.32;100281.22;2088209;28;46563;-62
2022/12/23 04:37:30;;;;;;;;;0.33;0.33;;;;;15.24;77.58;100278.53;2084453;28;46251;-64
2022/12/23 04:38:31;;;;;;;;;0.33;0.33;;;;;15.24;77.05;100279.41;2068627;28;46952;-61
2022/12/23 04:39:31;;;;;;;;;0.33;0.33;;;;;15.23;77.40;100275.00;2071649;28;46166;-62
2022/12/23 04:40:31;;;;;;;;;1.33;1.33;;;;;15.24;77.29;100275.88;2098062;28;46026;-61
2022/12/23 04:41:32;;;;;;;;;0.67;0.33;;;;;15.24;76.96;100263.38;2081217;28;45608;-61
2022/12/23 04:42:33;;;;;;;;;0.33;0.33;;;;;15.23;77.09;100266.97;2083156;28;46740;-61
2022/12/23 04:43:33;;;;;;;;;0.75;0.75;;;;;15.24;77.48;100274.06;2103873;27;46559;-62
2022/12/23 04:44:33;;;;;;;;;0.00;0.00;;;;;15.24;77.18;100270.53;2122167;27;46685;-61
2022/12/23 04:45:34;;;;;;;;;1.00;1.00;;;;;15.23;77.70;100275.00;2113041;27;45406;-63
2022/12/23 04:46:34;;;;;;;;;1.67;1.67;;;;;15.24;77.19;100279.41;2111831;27;46261;-61
2022/12/23 04:47:34;;;;;;;;;1.33;1.00;;;;;15.24;77.31;100279.41;2105513;27;47337;-62
2022/12/23 04:48:35;;;;;;;;;0.00;0.00;;;;;15.25;77.68;100273.16;2079997;28;46781;-62
2022/12/23 04:49:35;;;;;;;;;0.33;0.33;;;;;15.25;77.29;100258.91;2080319;28;46612;-61
2022/12/23 04:50:35;;;;;;;;;0.67;0.67;;;;;15.25;77.72;100258.91;2107322;27;46332;-62
2022/12/23 04:51:36;;;;;;;;;1.00;1.00;;;;;15.25;77.75;100264.25;2107079;27;46868;-62
2022/12/23 04:52:36;;;;;;;;;2.33;0.33;;;;;15.26;77.28;100263.31;2114026;27;46317;-63
2022/12/23 04:53:37;;;;;;;;;1.00;1.00;;;;;15.26;77.15;100257.97;2111178;27;46416;-63
2022/12/23 04:54:37;;;;;;;;;0.00;0.00;;;;;15.26;77.74;100257.97;2112540;27;46622;-63
2022/12/23 04:55:38;;;;;;;;;2.67;0.33;;;;;15.26;77.78;100266.00;2106368;27;47040;-62
2022/12/23 04:56:38;;;;;;;;;0.00;0.00;;;;;15.26;77.62;100252.63;2107278;27;46605;-61
2022/12/23 04:57:38;;;;;;;;;3.67;2.33;;;;;15.27;77.33;100249.88;2113613;27;46467;-61
2022/12/23 04:58:39;;;;;;;;;1.00;0.67;;;;;15.28;77.52;100256.94;2112316;27;45816;-62
2022/12/23 04:59:39;;;;;;;;;1.33;0.33;;;;;15.29;77.60;100242.66;2111092;27;46810;-62
2022/12/23 05:00:39;;;;;;;;;3.33;0.33;;;;;15.29;77.35;100239.97;2105825;27;46580;-61
2022/12/23 05:01:41;;;;;;;;;0.00;0.00;;;;;15.30;77.29;100251.53;2107890;27;46267;-60
2022/12/23 05:02:41;;;;;;;;;1.50;1.50;;;;;15.31;77.45;100247.91;2112371;27;46259;-62
2022/12/23 05:03:41;;;;;;;;;0.67;0.33;;;;;15.31;77.75;100250.59;2105648;27;46309;-62
2022/12/23 05:04:42;;;;;;;;;1.00;1.00;;;;;15.32;77.52;100247.84;2105649;27;46366;-62
2022/12/23 05:05:43;;;;;;;;;0.00;0.00;;;;;15.32;77.35;100247.84;2105632;27;46278;-62
2022/12/23 05:06:44;;;;;;;;;0.25;0.25;;;;;15.33;77.37;100248.69;2105636;27;46437;-62
2022/12/23 05:07:44;;;;;;;;;4.33;1.33;;;;;15.33;77.23;100246.03;2107762;27;46769;-62
2022/12/23 05:08:44;;;;;;;;;1.00;1.00;;;;;15.34;77.79;100244.22;2105901;27;46511;-61
2022/12/23 05:09:44;;;;;;;;;3.00;2.00;;;;;15.34;77.34;100247.75;2105456;27;46734;-62
2022/12/23 05:10:45;;;;;;;;;1.00;1.00;;;;;15.34;77.50;100249.56;2104633;27;46856;-62
2022/12/23 05:11:45;;;;;;;;;1.33;1.00;;;;;15.34;77.28;100247.75;2106016;27;45590;-61
2022/12/23 05:12:45;;;;;;;;;1.33;1.33;;;;;15.35;77.53;100249.50;2105520;27;46531;-61
2022/12/23 05:13:46;;;;;;;;;2.00;1.67;;;;;15.34;77.76;100249.56;2105788;27;46754;-62
2022/12/23 05:14:46;;;;;;;;;0.33;0.33;;;;;15.34;77.73;100247.75;2105600;27;46165;-62
2022/12/23 05:15:51;;;;;;;;;0.00;0.00;;;;;15.34;77.86;100252.25;2107293;27;46326;-62
2022/12/23 05:16:52;;;;;;;;;3.25;1.50;;;;;15.34;77.83;100247.75;2105008;28;47097;-62
2022/12/23 05:17:52;;;;;;;;;0.00;0.00;;;;;15.33;77.45;100254.03;2107990;27;46599;-62
2022/12/23 05:18:52;;;;;;;;;0.67;0.67;;;;;15.34;77.78;100250.44;2106823;27;46603;-62
2022/12/23 05:19:52;;;;;;;;;1.00;1.00;;;;;15.36;77.46;100261.03;2110858;27;46616;-62
2022/12/23 05:20:53;;;;;;;;;3.00;1.00;;;;;15.36;77.88;100259.22;2108999;27;46349;-62
2022/12/23 05:21:53;;;;;;;;;0.33;0.33;;;;;15.36;77.71;100253.88;2113964;27;46487;-62
2022/12/23 05:22:53;;;;;;;;;1.00;1.00;;;;;15.36;77.50;100247.69;2106580;27;46238;-61
2022/12/23 05:23:54;;;;;;;;;3.33;2.00;;;;;15.37;77.78;100247.59;2096055;28;46620;-61
2022/12/23 05:24:54;;;;;;;;;4.00;2.33;;;;;15.37;77.49;100242.25;2096191;28;46575;-62
2022/12/23 05:25:55;;;;;;;;;2.67;1.00;;;;;15.38;77.42;100237.81;2106206;27;46741;-62
2022/12/23 05:26:55;;;;;;;;;1.00;1.00;;;;;15.38;77.81;100240.47;2105588;27;46195;-61
2022/12/23 05:27:55;;;;;;;;;1.00;1.00;;;;;15.39;77.89;100232.38;2105202;27;46303;-62